createdAt,value
2023-08-11T00:00:41.183Z,5.07
2023-08-11T00:02:42.691Z,5.10
2023-08-11T00:04:44.118Z,6.10
2023-08-11T00:06:45.942Z,6.50
2023-08-11T00:08:47.494Z,5.20
2023-08-11T00:10:48.945Z,7.63
2023-08-11T00:12:50.535Z,7.05
2023-08-11T00:14:53.737Z,7.55
2023-08-11T00:16:55.212Z,9.55
2023-08-11T00:18:56.831Z,6.38
2023-08-11T00:21:01.016Z,5.65
2023-08-11T00:23:02.457Z,5.60
2023-08-11T00:25:04.218Z,6.07
2023-08-11T00:27:06.376Z,5.93
2023-08-11T00:29:08.034Z,6.78
2023-08-11T00:31:09.494Z,5.68
2023-08-11T00:33:11.555Z,9.20
2023-08-11T00:35:13.337Z,5.45
2023-08-11T00:37:15.286Z,6.38
2023-08-11T00:39:16.899Z,6.22
2023-08-11T00:41:18.474Z,8.77
2023-08-11T00:43:19.962Z,6.50
2023-08-11T00:45:21.577Z,7.80
2023-08-11T00:47:23.166Z,7.35
2023-08-11T00:49:25.004Z,5.75
2023-08-11T00:51:27.075Z,5.97
2023-08-11T00:53:28.639Z,6.18
2023-08-11T00:55:30.543Z,7.43
2023-08-11T00:57:32.527Z,5.90
2023-08-11T00:59:34.033Z,6.82
2023-08-11T01:01:36.689Z,7.07
2023-08-11T01:03:38.147Z,5.72
2023-08-11T01:05:45.738Z,7.25
2023-08-11T01:08:13.427Z,7.07
2023-08-11T01:10:34.305Z,6.45
2023-08-11T01:13:26.909Z,7.53
2023-08-11T01:15:33.971Z,6.45
2023-08-11T01:17:37.368Z,4.65
2023-08-11T01:19:39.150Z,6.60
2023-08-11T01:21:41.936Z,9.40
2023-08-11T01:23:43.529Z,6.85
2023-08-11T01:25:45.578Z,5.97
2023-08-11T01:27:53.775Z,7.65
2023-08-11T01:29:55.331Z,9.55
2023-08-11T01:31:56.871Z,5.28
2023-08-11T01:33:58.355Z,8.45
2023-08-11T01:35:59.793Z,7.30
2023-08-11T01:38:01.221Z,6.40
2023-08-11T01:42:32.346Z,7.80
2023-08-11T01:44:37.496Z,7.15
2023-08-11T01:46:39.723Z,9.65
2023-08-11T01:48:41.941Z,6.85
2023-08-11T01:50:43.787Z,10.80
2023-08-11T01:52:48.723Z,10.73
2023-08-11T01:54:50.414Z,8.35
2023-08-11T01:56:52.146Z,10.27
2023-08-11T01:58:53.616Z,8.05
2023-08-11T02:00:55.065Z,12.13
2023-08-11T02:02:58.564Z,18.98
2023-08-11T02:05:00.217Z,12.82
2023-08-11T02:07:01.658Z,10.82
2023-08-11T02:09:05.595Z,6.72
2023-08-11T02:11:07.234Z,9.80
2023-08-11T02:13:08.802Z,7.53
2023-08-11T02:17:39.069Z,7.43
2023-08-11T02:19:40.740Z,6.43
2023-08-11T02:21:43.266Z,8.63
2023-08-11T02:23:44.849Z,5.68
2023-08-11T02:25:46.357Z,7.05
2023-08-11T02:27:48.200Z,7.93
2023-08-11T02:29:50.520Z,6.40
2023-08-11T02:31:52.212Z,9.38
2023-08-11T02:33:53.725Z,10.23
2023-08-11T02:35:55.169Z,5.78
2023-08-11T02:37:56.662Z,6.43
2023-08-11T02:39:58.134Z,7.78
2023-08-11T02:41:59.610Z,6.78
2023-08-11T02:44:01.300Z,6.80
2023-08-11T02:46:02.775Z,4.80
2023-08-11T02:48:04.564Z,7.03
2023-08-11T02:50:06.617Z,9.32
2023-08-11T02:52:08.761Z,8.30
2023-08-11T02:54:10.435Z,6.85
2023-08-11T02:56:16.300Z,6.53
2023-08-11T02:58:17.864Z,6.45
2023-08-11T03:00:19.406Z,6.57
2023-08-11T03:02:20.948Z,8.02
2023-08-11T03:04:22.450Z,7.45
2023-08-11T03:06:23.889Z,8.77
2023-08-11T03:08:25.556Z,6.00
2023-08-11T03:10:27.221Z,6.82
2023-08-11T03:12:31.793Z,6.68
2023-08-11T03:14:33.436Z,6.75
2023-08-11T03:16:34.971Z,8.55
2023-08-11T03:18:36.562Z,7.85
2023-08-11T03:20:38.099Z,6.13
2023-08-11T03:22:43.617Z,6.88
2023-08-11T03:24:45.916Z,6.28
2023-08-11T03:26:47.377Z,6.97
2023-08-11T03:28:48.829Z,6.35
2023-08-11T03:30:50.266Z,10.68
2023-08-11T03:32:52.749Z,7.22
2023-08-11T03:34:54.498Z,7.85
2023-08-11T03:36:55.930Z,7.15
2023-08-11T03:38:57.370Z,8.07
2023-08-11T03:40:58.937Z,7.25
2023-08-11T03:43:00.422Z,6.53
2023-08-11T03:45:02.065Z,7.20
2023-08-11T03:47:03.592Z,8.80
2023-08-11T03:49:07.781Z,7.75
2023-08-11T03:51:09.960Z,6.28
2023-08-11T03:53:11.407Z,7.07
2023-08-11T03:55:13.541Z,6.63
2023-08-11T03:57:15.640Z,10.27
2023-08-11T03:59:17.110Z,10.40
2023-08-11T04:01:19.044Z,6.97
2023-08-11T04:03:20.761Z,8.75
2023-08-11T04:05:22.564Z,10.10
2023-08-11T04:07:24.008Z,7.72
2023-08-11T04:09:25.444Z,6.70
2023-08-11T04:11:28.056Z,5.97
2023-08-11T04:13:29.596Z,10.52
2023-08-11T04:15:32.359Z,7.53
2023-08-11T04:17:34.975Z,8.55
2023-08-11T04:19:36.610Z,9.02
2023-08-11T04:21:40.319Z,6.65
2023-08-11T04:23:41.948Z,6.22
2023-08-11T04:25:46.334Z,7.53
2023-08-11T04:27:47.823Z,6.85
2023-08-11T04:29:49.252Z,8.27
2023-08-11T04:31:50.719Z,8.00
2023-08-11T04:33:52.160Z,6.22
2023-08-11T04:35:54.175Z,9.60
2023-08-11T04:37:55.717Z,8.80
2023-08-11T04:39:57.388Z,6.30
2023-08-11T04:41:58.886Z,9.05
2023-08-11T04:44:00.616Z,6.55
2023-08-11T04:46:02.122Z,6.00
2023-08-11T04:48:03.877Z,6.82
2023-08-11T04:50:05.909Z,7.03
2023-08-11T04:52:07.509Z,7.45
2023-08-11T04:54:09.180Z,6.35
2023-08-11T04:56:10.675Z,5.53
2023-08-11T04:58:12.313Z,6.05
2023-08-11T05:00:18.048Z,5.60
2023-08-11T05:02:19.873Z,5.53
2023-08-11T05:04:22.015Z,5.60
2023-08-11T05:06:23.503Z,7.57
2023-08-11T05:08:25.041Z,6.97
2023-08-11T05:10:26.588Z,7.28
2023-08-11T05:12:28.023Z,6.32
2023-08-11T05:14:29.527Z,6.03
2023-08-11T05:16:31.073Z,6.82
2023-08-11T05:18:42.083Z,4.55
2023-08-11T05:22:49.134Z,6.18
2023-08-11T05:24:50.694Z,8.48
2023-08-11T05:26:52.148Z,8.23
2023-08-11T05:28:53.574Z,7.03
2023-08-11T05:30:57.238Z,6.35
2023-08-11T05:32:59.207Z,7.75
2023-08-11T05:35:00.965Z,7.60
2023-08-11T05:37:04.386Z,8.90
2023-08-11T05:39:07.871Z,5.75
2023-08-11T05:41:10.201Z,7.70
2023-08-11T05:43:11.693Z,6.70
2023-08-11T05:45:14.922Z,9.18
2023-08-11T05:47:17.762Z,8.52
2023-08-11T05:49:19.176Z,7.85
2023-08-11T05:51:20.661Z,7.00
2023-08-11T05:53:22.090Z,6.32
2023-08-11T05:55:23.923Z,5.97
2023-08-11T05:57:25.525Z,8.25
2023-08-11T05:59:27.437Z,8.27
2023-08-11T06:01:29.012Z,8.68
2023-08-11T06:03:33.358Z,6.50
2023-08-11T06:05:34.879Z,5.47
2023-08-11T06:07:36.353Z,6.72
2023-08-11T06:09:37.928Z,7.05
2023-08-11T06:11:39.505Z,8.40
2023-08-11T06:13:41.190Z,7.18
2023-08-11T06:15:42.725Z,8.18
2023-08-11T06:17:45.045Z,8.35
2023-08-11T06:19:46.569Z,7.35
2023-08-11T06:21:48.034Z,6.93
2023-08-11T06:23:49.494Z,7.88
2023-08-11T06:25:50.938Z,10.95
2023-08-11T06:27:52.364Z,9.65
2023-08-11T06:29:53.826Z,11.77
2023-08-11T06:31:55.307Z,12.10
2023-08-11T06:33:56.954Z,8.73
2023-08-11T06:35:58.454Z,7.45
2023-08-11T06:38:00.574Z,7.18
2023-08-11T06:40:02.388Z,9.77
2023-08-11T06:42:03.965Z,7.88
2023-08-11T06:44:06.495Z,6.40
2023-08-11T06:46:08.147Z,8.43
2023-08-11T06:48:09.732Z,9.88
2023-08-11T06:50:11.266Z,7.25
2023-08-11T06:52:12.795Z,8.40
2023-08-11T06:54:14.403Z,8.52
2023-08-11T06:56:15.917Z,6.20
2023-08-11T06:58:17.369Z,7.78
2023-08-11T07:00:18.940Z,6.32
2023-08-11T07:02:20.524Z,8.70
2023-08-11T07:04:22.098Z,11.52
2023-08-11T07:06:23.583Z,9.45
2023-08-11T07:08:25.156Z,11.80
2023-08-11T07:10:26.860Z,9.65
2023-08-11T07:12:28.350Z,10.52
2023-08-11T07:14:29.768Z,10.88
2023-08-11T07:16:31.295Z,7.97
2023-08-11T07:18:32.825Z,6.45
2023-08-11T07:20:34.264Z,8.77
2023-08-11T07:22:35.700Z,7.72
2023-08-11T07:24:37.248Z,5.00
2023-08-11T07:26:38.788Z,6.38
2023-08-11T07:28:41.259Z,7.97
2023-08-11T07:30:42.867Z,4.57
2023-08-11T07:32:44.373Z,5.50
2023-08-11T07:34:45.868Z,5.85
2023-08-11T07:36:47.376Z,9.18
2023-08-11T07:38:49.032Z,5.15
2023-08-11T07:40:50.844Z,8.30
2023-08-11T07:42:52.317Z,6.82
2023-08-11T07:44:53.827Z,6.05
2023-08-11T07:46:55.302Z,6.20
2023-08-11T07:48:56.802Z,7.95
2023-08-11T07:50:58.311Z,5.80
2023-08-11T07:52:59.769Z,4.95
2023-08-11T07:55:01.306Z,4.95
2023-08-11T07:57:02.946Z,6.40
2023-08-11T07:59:04.543Z,4.28
2023-08-11T08:01:07.696Z,5.20
2023-08-11T08:03:09.171Z,6.13
2023-08-11T08:05:13.485Z,4.78
2023-08-11T08:07:15.258Z,4.30
2023-08-11T08:09:16.842Z,3.83
2023-08-11T08:11:18.409Z,4.75
2023-08-11T08:13:19.875Z,5.43
2023-08-11T08:15:21.409Z,5.15
2023-08-11T08:17:22.865Z,3.75
2023-08-11T08:19:24.284Z,5.13
2023-08-11T08:21:25.762Z,4.63
2023-08-11T08:23:27.255Z,4.65
2023-08-11T08:25:28.894Z,3.80
2023-08-11T08:27:31.266Z,5.65
2023-08-11T08:29:35.148Z,4.60
2023-08-11T08:31:37.168Z,4.80
2023-08-11T08:33:38.647Z,4.88
2023-08-11T08:35:40.177Z,6.78
2023-08-11T08:37:42.033Z,4.43
2023-08-11T08:39:44.966Z,5.90
2023-08-11T08:41:48.409Z,5.28
2023-08-11T08:43:51.763Z,4.90
2023-08-11T08:45:54.222Z,4.80
2023-08-11T08:47:58.402Z,4.00
2023-08-11T08:50:01.683Z,5.82
2023-08-11T08:52:05.974Z,4.53
2023-08-11T08:54:10.994Z,6.05
2023-08-11T08:56:13.684Z,4.70
2023-08-11T08:58:17.094Z,4.75
2023-08-11T09:00:19.749Z,5.07
2023-08-11T09:02:22.423Z,4.75
2023-08-11T09:04:24.050Z,4.25
2023-08-11T09:06:27.617Z,6.80
2023-08-11T09:08:32.399Z,4.15
2023-08-11T09:10:37.576Z,3.78
2023-08-11T09:12:39.119Z,6.65
2023-08-11T09:14:42.974Z,4.30
2023-08-11T09:16:44.447Z,5.30
2023-08-11T09:18:46.091Z,3.47
2023-08-11T09:20:49.608Z,2.97
2023-08-11T09:22:51.071Z,5.25
2023-08-11T09:24:54.918Z,4.15
2023-08-11T09:26:59.360Z,3.50
2023-08-11T09:29:00.846Z,5.32
2023-08-11T09:31:02.527Z,3.60
2023-08-11T09:33:04.934Z,4.20
2023-08-11T09:35:10.535Z,4.55
2023-08-11T09:37:12.146Z,4.05
2023-08-11T09:39:14.905Z,4.22
2023-08-11T09:41:17.748Z,5.22
2023-08-11T09:43:19.237Z,5.38
2023-08-11T09:45:20.695Z,4.28
2023-08-11T09:47:23.032Z,3.65
2023-08-11T09:49:24.794Z,4.90
2023-08-11T09:51:26.344Z,4.75
2023-08-11T09:53:28.434Z,4.40
2023-08-11T09:55:32.693Z,5.43
2023-08-11T09:57:44.853Z,5.40
2023-08-11T09:59:48.477Z,3.25
2023-08-11T10:01:55.062Z,3.45
2023-08-11T10:03:58.660Z,4.20
2023-08-11T10:06:03.697Z,6.90
2023-08-11T10:08:07.387Z,5.93
2023-08-11T10:10:19.457Z,3.33
2023-08-11T10:12:22.030Z,3.95
2023-08-11T10:14:26.707Z,3.60
2023-08-11T10:16:29.150Z,5.72
2023-08-11T10:18:32.510Z,3.75
2023-08-11T10:20:34.555Z,4.32
2023-08-11T10:22:36.046Z,3.92
2023-08-11T10:24:38.836Z,5.78
2023-08-11T10:26:41.394Z,4.20
2023-08-11T10:28:43.072Z,4.57
2023-08-11T10:30:44.652Z,4.75
2023-08-11T10:32:46.225Z,5.50
2023-08-11T10:34:47.707Z,5.13
2023-08-11T10:36:49.215Z,2.97
2023-08-11T10:39:08.662Z,4.30
2023-08-11T10:41:11.465Z,5.00
2023-08-11T10:43:17.464Z,5.53
2023-08-11T10:45:22.279Z,4.75
2023-08-11T10:47:23.742Z,4.43
2023-08-11T10:49:35.627Z,3.83
2023-08-11T10:51:39.098Z,3.58
2023-08-11T10:53:40.945Z,4.93
2023-08-11T10:55:42.402Z,4.85
2023-08-11T10:57:43.870Z,4.55
2023-08-11T10:59:45.414Z,4.35
2023-08-11T11:01:48.535Z,6.97
2023-08-11T11:03:50.756Z,12.55
2023-08-11T11:05:52.832Z,5.43
2023-08-11T11:07:54.716Z,21.17
2023-08-11T11:09:56.185Z,6.68
2023-08-11T11:11:57.806Z,17.85
2023-08-11T11:13:59.591Z,6.15
2023-08-11T11:16:01.089Z,6.53
2023-08-11T11:18:02.757Z,4.60
2023-08-11T11:20:04.661Z,3.75
2023-08-11T11:22:08.522Z,4.10
2023-08-11T11:24:11.169Z,7.10
2023-08-11T11:26:22.462Z,4.20
2023-08-11T11:28:24.011Z,3.70
2023-08-11T11:30:25.493Z,4.45
2023-08-11T11:32:27.877Z,5.85
2023-08-11T11:34:29.403Z,4.03
2023-08-11T11:36:31.378Z,4.25
2023-08-11T11:38:32.967Z,3.83
2023-08-11T11:40:34.439Z,5.15
2023-08-11T11:42:39.288Z,3.92
2023-08-11T11:44:43.437Z,3.30
2023-08-11T11:46:46.164Z,4.70
2023-08-11T11:48:54.950Z,5.25
2023-08-11T11:50:57.390Z,4.57
2023-08-11T11:52:58.896Z,3.40
2023-08-11T11:55:04.789Z,3.47
2023-08-11T11:57:08.255Z,4.10
2023-08-11T11:59:11.590Z,5.15
2023-08-11T12:01:16.178Z,4.88
2023-08-11T12:03:17.859Z,3.53
2023-08-11T12:05:19.481Z,6.97
2023-08-11T12:07:34.421Z,5.22
2023-08-11T12:09:54.838Z,5.20
2023-08-11T12:11:56.730Z,3.25
2023-08-11T12:14:00.631Z,3.85
2023-08-11T12:16:03.107Z,3.67
2023-08-11T12:18:05.992Z,3.83
2023-08-11T12:20:11.359Z,4.70
2023-08-11T12:22:12.945Z,4.80
2023-08-11T12:24:17.204Z,4.63
2023-08-11T12:26:18.658Z,6.45
2023-08-11T12:28:21.108Z,3.30
2023-08-11T12:30:22.599Z,4.40
2023-08-11T12:32:24.110Z,3.70
2023-08-11T12:34:25.553Z,4.53
2023-08-11T12:36:26.970Z,3.50
2023-08-11T12:38:28.486Z,5.65
2023-08-11T12:40:31.241Z,4.47
2023-08-11T12:42:32.657Z,4.57
2023-08-11T12:44:34.133Z,3.33
2023-08-11T12:46:37.257Z,4.97
2023-08-11T12:48:38.830Z,3.53
2023-08-11T12:50:41.457Z,3.58
2023-08-11T12:52:42.889Z,4.63
2023-08-11T12:54:44.327Z,3.58
2023-08-11T12:56:46.275Z,5.10
2023-08-11T12:58:47.987Z,3.63
2023-08-11T13:00:49.395Z,4.20
2023-08-11T13:02:50.943Z,5.10
2023-08-11T13:04:52.516Z,4.47
2023-08-11T13:06:53.950Z,3.83
2023-08-11T13:08:55.635Z,3.85
2023-08-11T13:10:57.096Z,4.47
2023-08-11T13:12:58.623Z,6.25
2023-08-11T13:15:00.127Z,3.97
2023-08-11T13:17:01.612Z,4.07
2023-08-11T13:19:03.935Z,4.88
2023-08-11T13:21:06.342Z,4.80
2023-08-11T13:23:08.186Z,4.40
2023-08-11T13:25:10.910Z,3.30
2023-08-11T13:27:12.857Z,5.10
2023-08-11T13:29:14.365Z,4.50
2023-08-11T13:31:15.860Z,4.00
2023-08-11T13:33:17.370Z,3.95
2023-08-11T13:35:18.925Z,5.88
2023-08-11T13:37:20.409Z,4.85
2023-08-11T13:39:22.286Z,3.70
2023-08-11T13:41:23.860Z,6.80
2023-08-11T13:43:26.238Z,5.97
2023-08-11T13:45:27.787Z,7.80
2023-08-11T13:47:29.312Z,5.65
2023-08-11T13:49:30.791Z,5.53
2023-08-11T13:51:33.616Z,3.08
2023-08-11T13:53:35.112Z,3.60
2023-08-11T13:55:36.781Z,8.50
2023-08-11T13:57:38.258Z,4.95
2023-08-11T13:59:39.782Z,4.35
2023-08-11T14:01:41.222Z,5.00
2023-08-11T14:03:42.685Z,5.53
2023-08-11T14:05:44.208Z,6.97
2023-08-11T14:07:49.617Z,7.05
2023-08-11T14:09:51.414Z,4.75
2023-08-11T14:11:56.201Z,4.53
2023-08-11T14:13:57.919Z,5.18
2023-08-11T14:15:59.465Z,6.00
2023-08-11T14:18:01.035Z,7.22
2023-08-11T14:20:02.508Z,5.78
2023-08-11T14:22:03.982Z,8.70
2023-08-11T14:24:06.028Z,11.88
2023-08-11T14:26:08.379Z,8.18
2023-08-11T14:28:09.837Z,11.07
2023-08-11T14:30:12.092Z,13.10
2023-08-11T14:32:23.187Z,8.18
2023-08-11T14:34:26.717Z,17.77
2023-08-11T14:36:28.159Z,10.02
2023-08-11T14:38:29.623Z,8.32
2023-08-11T14:40:31.032Z,11.50
2023-08-11T14:42:32.500Z,6.28
2023-08-11T14:44:33.907Z,5.05
2023-08-11T14:46:35.378Z,6.65
2023-08-11T14:48:36.871Z,8.50
2023-08-11T14:50:38.341Z,5.65
2023-08-11T14:52:39.753Z,4.07
2023-08-11T14:54:41.257Z,3.78
2023-08-11T14:56:42.984Z,4.57
2023-08-11T14:58:46.642Z,4.45
2023-08-11T15:00:48.864Z,7.13
2023-08-11T15:02:50.410Z,5.40
2023-08-11T15:04:52.846Z,11.18
2023-08-11T15:06:54.310Z,4.05
2023-08-11T15:08:55.773Z,5.57
2023-08-11T15:10:57.344Z,4.72
2023-08-11T15:13:00.713Z,5.63
2023-08-11T15:15:02.188Z,4.43
2023-08-11T15:17:03.862Z,6.82
2023-08-11T15:19:05.359Z,4.00
2023-08-11T15:21:07.666Z,6.32
2023-08-11T15:23:09.159Z,6.50
2023-08-11T15:25:10.674Z,7.82
2023-08-11T15:27:14.034Z,4.72
2023-08-11T15:29:15.577Z,4.85
2023-08-11T15:31:17.754Z,5.35
2023-08-11T15:33:19.249Z,4.53
2023-08-11T15:35:20.863Z,5.57
2023-08-11T15:37:22.320Z,5.47
2023-08-11T15:39:23.940Z,7.15
2023-08-11T15:41:25.392Z,5.65
2023-08-11T15:43:26.861Z,7.03
2023-08-11T15:45:29.110Z,5.47
2023-08-11T15:47:30.594Z,6.43
2023-08-11T15:49:32.024Z,4.53
2023-08-11T15:51:33.578Z,6.35
2023-08-11T15:53:35.042Z,5.80
2023-08-11T15:55:37.115Z,6.35
2023-08-11T15:57:38.661Z,5.88
2023-08-11T15:59:40.196Z,5.30
2023-08-11T16:01:44.285Z,6.05
2023-08-11T16:03:57.389Z,5.35
2023-08-11T16:05:59.823Z,5.57
2023-08-11T16:08:01.362Z,7.13
2023-08-11T16:10:03.147Z,3.35
2023-08-11T16:12:05.070Z,6.53
2023-08-11T16:14:06.543Z,4.97
2023-08-11T16:16:09.719Z,9.13
2023-08-11T16:18:11.872Z,5.32
2023-08-11T16:20:13.490Z,6.15
2023-08-11T16:22:15.022Z,7.13
2023-08-11T16:24:16.601Z,4.25
2023-08-11T16:26:18.038Z,8.02
2023-08-11T16:28:19.510Z,5.22
2023-08-11T16:30:21.100Z,5.78
2023-08-11T16:32:22.596Z,4.95
2023-08-11T16:34:24.955Z,5.55
2023-08-11T16:36:26.523Z,4.72
2023-08-11T16:38:28.019Z,5.03
2023-08-11T16:40:30.904Z,4.63
2023-08-11T16:42:32.382Z,3.53
2023-08-11T16:44:33.814Z,4.20
2023-08-11T16:46:35.261Z,5.55
2023-08-11T16:48:36.795Z,10.45
2023-08-11T16:50:38.790Z,3.55
2023-08-11T16:52:40.303Z,5.72
2023-08-11T16:54:41.781Z,4.20
2023-08-11T16:56:43.299Z,4.03
2023-08-11T16:58:44.741Z,3.72
2023-08-11T17:00:48.293Z,4.53
2023-08-11T17:02:52.254Z,4.57
2023-08-11T17:04:53.778Z,4.82
2023-08-11T17:06:55.214Z,4.80
2023-08-11T17:08:56.700Z,5.75
2023-08-11T17:10:58.346Z,4.57
2023-08-11T17:12:59.819Z,5.47
2023-08-11T17:15:01.330Z,3.78
2023-08-11T17:17:02.876Z,3.90
2023-08-11T17:19:04.559Z,4.30
2023-08-11T17:21:06.067Z,4.40
2023-08-11T17:23:07.608Z,3.75
2023-08-11T17:25:09.373Z,5.22
2023-08-11T17:27:10.880Z,5.95
2023-08-11T17:29:12.449Z,3.63
2023-08-11T17:31:14.252Z,7.75
2023-08-11T17:33:15.781Z,3.53
2023-08-11T17:35:17.345Z,4.10
2023-08-11T17:37:18.763Z,3.88
2023-08-11T17:39:21.360Z,4.07
2023-08-11T17:41:25.262Z,4.40
2023-08-11T17:43:26.870Z,8.27
2023-08-11T17:45:28.526Z,4.38
2023-08-11T17:47:30.007Z,4.00
2023-08-11T17:49:31.594Z,5.00
2023-08-11T17:51:33.100Z,7.47
2023-08-11T17:53:34.589Z,4.43
2023-08-11T17:55:36.067Z,3.60
2023-08-11T17:57:37.527Z,4.03
2023-08-11T17:59:39.365Z,6.90
2023-08-11T18:01:41.056Z,4.80
2023-08-11T18:03:42.628Z,5.80
2023-08-11T18:05:44.413Z,3.38
2023-08-11T18:07:45.948Z,6.72
2023-08-11T18:09:47.379Z,5.20
2023-08-11T18:11:48.873Z,6.68
2023-08-11T18:13:50.330Z,4.38
2023-08-11T18:15:51.800Z,5.13
2023-08-11T18:17:54.731Z,4.85
2023-08-11T18:19:56.380Z,5.68
2023-08-11T18:21:57.931Z,7.93
2023-08-11T18:23:59.478Z,6.50
2023-08-11T18:26:00.915Z,5.03
2023-08-11T18:28:02.433Z,5.30
2023-08-11T18:30:05.051Z,5.95
2023-08-11T18:32:06.694Z,6.72
2023-08-11T18:34:08.137Z,4.72
2023-08-11T18:36:09.764Z,6.13
2023-08-11T18:38:11.169Z,5.20
2023-08-11T18:40:12.794Z,5.63
2023-08-11T18:42:14.387Z,5.72
2023-08-11T18:44:18.921Z,6.57
2023-08-11T18:46:20.454Z,5.80
2023-08-11T18:48:21.911Z,4.90
2023-08-11T18:50:23.486Z,4.82
2023-08-11T18:52:24.955Z,7.28
2023-08-11T18:54:26.629Z,4.90
2023-08-11T18:56:28.135Z,5.78
2023-08-11T18:58:29.587Z,5.50
2023-08-11T19:00:31.072Z,6.57
2023-08-11T19:02:32.540Z,8.10
2023-08-11T19:04:34.166Z,7.47
2023-08-11T19:06:38.385Z,8.05
2023-08-11T19:08:39.878Z,5.18
2023-08-11T19:10:41.355Z,5.00
2023-08-11T19:12:42.816Z,5.13
2023-08-11T19:14:44.545Z,6.03
2023-08-11T19:16:46.032Z,5.15
2023-08-11T19:18:48.132Z,6.78
2023-08-11T19:20:49.832Z,6.47
2023-08-11T19:22:51.282Z,5.25
2023-08-11T19:24:52.734Z,5.95
2023-08-11T19:26:54.147Z,6.57
2023-08-11T19:28:56.392Z,5.82
2023-08-11T19:31:00.660Z,6.43
2023-08-11T19:33:02.618Z,6.07
2023-08-11T19:35:05.998Z,6.22
2023-08-11T19:37:08.006Z,7.70
2023-08-11T19:39:09.948Z,7.65
2023-08-11T19:41:11.933Z,6.18
2023-08-11T19:43:14.458Z,7.95
2023-08-11T19:45:15.903Z,6.50
2023-08-11T19:47:17.493Z,5.45
2023-08-11T19:49:21.543Z,8.90
2023-08-11T19:51:23.762Z,5.03
2023-08-11T19:53:25.344Z,8.05
2023-08-11T19:55:26.958Z,7.97
2023-08-11T19:57:28.444Z,6.45
2023-08-11T19:59:29.983Z,7.85
2023-08-11T20:01:31.879Z,8.27
2023-08-11T20:03:33.414Z,6.05
2023-08-11T20:05:41.816Z,7.47
2023-08-11T20:07:43.315Z,7.35
2023-08-11T20:09:44.761Z,9.30
2023-08-11T20:11:46.211Z,7.88
2023-08-11T20:13:47.696Z,7.22
2023-08-11T20:15:49.229Z,6.22
2023-08-11T20:17:50.776Z,6.97
2023-08-11T20:19:52.275Z,4.82
2023-08-11T20:21:53.928Z,7.38
2023-08-11T20:23:55.426Z,6.13
2023-08-11T20:25:56.914Z,6.00
2023-08-11T20:27:59.165Z,7.15
2023-08-11T20:30:00.649Z,7.65
2023-08-11T20:32:04.420Z,7.00
2023-08-11T20:34:06.625Z,9.05
2023-08-11T20:36:08.153Z,9.15
2023-08-11T20:38:09.573Z,6.32
2023-08-11T20:40:11.490Z,8.05
2023-08-11T20:42:12.959Z,6.70
2023-08-11T20:44:14.414Z,8.75
2023-08-11T20:46:15.881Z,8.55
2023-08-11T20:48:17.745Z,7.90
2023-08-11T20:50:19.304Z,6.55
2023-08-11T20:52:20.830Z,9.05
2023-08-11T20:54:22.768Z,6.05
2023-08-11T20:56:24.289Z,6.53
2023-08-11T20:58:25.811Z,7.65
2023-08-11T21:00:27.234Z,7.53
2023-08-11T21:02:28.918Z,8.15
2023-08-11T21:04:30.520Z,8.27
2023-08-11T21:06:32.232Z,7.88
2023-08-11T21:08:33.809Z,8.13
2023-08-11T21:10:35.843Z,8.23
2023-08-11T21:12:37.300Z,12.10
2023-08-11T21:14:38.796Z,10.70
2023-08-11T21:16:41.061Z,9.20
2023-08-11T21:18:42.604Z,9.98
2023-08-11T21:20:44.161Z,8.50
2023-08-11T21:22:45.603Z,7.85
2023-08-11T21:24:47.083Z,7.57
2023-08-11T21:26:48.600Z,8.43
2023-08-11T21:28:50.313Z,7.80
2023-08-11T21:31:03.841Z,7.47
2023-08-11T21:33:13.492Z,7.00
2023-08-11T21:35:14.988Z,8.65
2023-08-11T21:37:16.440Z,8.43
2023-08-11T21:39:19.150Z,8.13
2023-08-11T21:41:20.603Z,7.45
2023-08-11T21:43:22.442Z,10.13
2023-08-11T21:45:24.060Z,9.23
2023-08-11T21:47:25.681Z,9.38
2023-08-11T21:49:27.119Z,7.82
2023-08-11T21:51:28.596Z,7.68
2023-08-11T21:53:30.188Z,8.05
2023-08-11T21:55:31.674Z,7.90
2023-08-11T21:57:33.565Z,9.13
2023-08-11T21:59:35.063Z,9.65
2023-08-11T22:01:36.527Z,10.23
2023-08-11T22:03:38.003Z,10.77
2023-08-11T22:05:39.734Z,8.45
2023-08-11T22:07:43.590Z,10.43
2023-08-11T22:09:45.161Z,10.88
2023-08-11T22:11:46.660Z,9.07
2023-08-11T22:13:48.145Z,9.32
2023-08-11T22:15:50.833Z,13.20
2023-08-11T22:17:54.550Z,7.78
2023-08-11T22:19:56.220Z,8.15
2023-08-11T22:21:57.979Z,10.10
2023-08-11T22:23:59.446Z,8.55
2023-08-11T22:26:00.886Z,11.60
2023-08-11T22:28:03.003Z,10.95
2023-08-11T22:30:06.088Z,12.98
2023-08-11T22:32:07.725Z,9.77
2023-08-11T22:34:09.242Z,9.80
2023-08-11T22:36:10.683Z,10.18
2023-08-11T22:38:12.654Z,8.27
2023-08-11T22:40:14.186Z,10.82
2023-08-11T22:42:27.884Z,8.60
2023-08-11T22:44:29.403Z,13.75
2023-08-11T22:46:30.878Z,10.88
2023-08-11T22:48:32.473Z,10.52
2023-08-11T22:50:34.038Z,10.23
2023-08-11T22:52:36.028Z,11.63
2023-08-11T22:54:37.620Z,10.00
2023-08-11T22:56:39.117Z,9.98
2023-08-11T22:58:40.559Z,10.85
2023-08-11T23:00:44.840Z,10.55
2023-08-11T23:02:46.334Z,16.70
2023-08-11T23:04:47.898Z,10.95
2023-08-11T23:06:49.347Z,10.73
2023-08-11T23:08:50.803Z,11.45
2023-08-11T23:10:52.299Z,13.00
2023-08-11T23:12:53.781Z,14.43
2023-08-11T23:14:55.349Z,13.10
2023-08-11T23:16:57.771Z,12.60
2023-08-11T23:18:59.762Z,11.45
2023-08-11T23:21:04.129Z,14.43
2023-08-11T23:23:05.613Z,12.23
2023-08-11T23:25:07.441Z,14.75
2023-08-11T23:27:09.331Z,16.30
2023-08-11T23:29:11.104Z,16.65
2023-08-11T23:31:12.636Z,13.68
2023-08-11T23:33:14.145Z,14.77
2023-08-11T23:35:15.768Z,15.07
2023-08-11T23:37:17.212Z,14.38
2023-08-11T23:39:18.975Z,17.00
2023-08-11T23:41:20.506Z,13.88
2023-08-11T23:43:21.975Z,15.23
2023-08-11T23:45:23.753Z,14.82
2023-08-11T23:47:25.707Z,17.73
2023-08-11T23:49:27.183Z,16.73
2023-08-11T23:51:28.737Z,19.50
2023-08-11T23:53:30.166Z,20.30
2023-08-11T23:55:31.665Z,17.30
2023-08-11T23:57:35.266Z,18.73
2023-08-11T23:59:37.135Z,19.27
